Time,TemperatureF,DewpointF,PressureIn,WindDirection,WindDirectionDegrees,WindSpeedMPH,WindSpeedGustMPH,Humidity,HourlyPrecipIn,Conditions,Clouds,dailyrainin,SolarRadiationWatts/m^2,SoftwareType,DateUTC
2013-04-28 00:52:00,79.0,24.0,-100.00,WNW,287,0.0,5.0,13,-99.99,,,0.00,0.000000,,2013-04-28 07:52:00,
2013-04-28 01:52:00,75.0,36.0,-100.00,East,80,0.0,7.0,24,0.00,,,0.00,0.000000,,2013-04-28 08:52:00,
2013-04-28 02:01:00,75.0,36.0,-100.00,East,80,0.0,7.0,24,0.00,,,0.00,0.000000,,2013-04-28 09:01:00,
2013-04-28 02:11:00,75.0,36.0,-100.00,East,80,0.0,7.0,24,0.00,,,0.00,0.000000,,2013-04-28 09:11:00,
2013-04-28 02:21:00,75.0,36.0,-100.00,East,80,0.0,7.0,24,0.00,,,0.00,0.000000,,2013-04-28 09:21:00,
2013-04-28 02:53:00,76.0,25.0,-100.00,North,10,0.0,5.0,15,0.00,,,-99.99,0.000000,,2013-04-28 09:53:00,
2013-04-28 03:03:00,76.0,25.0,-100.00,North,10,0.0,5.0,15,0.00,,,-99.99,0.000000,,2013-04-28 10:03:00,
2013-04-28 03:12:00,76.0,25.0,-100.00,North,10,0.0,5.0,15,0.00,,,-99.99,0.000000,,2013-04-28 10:12:00,
2013-04-28 03:22:00,76.0,25.0,-100.00,North,10,0.0,5.0,15,0.00,,,-99.99,0.000000,,2013-04-28 10:22:00,
2013-04-28 03:52:00,72.0,31.0,-100.00,NNE,19,2.0,4.0,22,0.00,,,0.00,0.000000,,2013-04-28 10:52:00,
2013-04-28 04:02:00,72.0,31.0,-100.00,NNE,19,2.0,4.0,22,0.00,,,0.00,0.000000,,2013-04-28 11:02:00,
2013-04-28 04:11:00,72.0,31.0,-100.00,NNE,19,2.0,4.0,22,0.00,,,0.00,0.000000,,2013-04-28 11:11:00,
2013-04-28 04:21:00,72.0,31.0,-100.00,NNE,19,2.0,4.0,22,0.00,,,0.00,0.000000,,2013-04-28 11:21:00,
2013-04-28 04:52:00,69.0,26.0,-100.00,North,352,2.0,8.0,20,0.00,,,0.00,0.000000,,2013-04-28 11:52:00,
2013-04-28 05:01:00,69.0,26.0,-100.00,North,352,2.0,8.0,20,0.00,,,0.00,0.000000,,2013-04-28 12:01:00,
2013-04-28 05:11:00,69.0,26.0,-100.00,North,352,2.0,8.0,20,0.00,,,0.00,0.000000,,2013-04-28 12:11:00,
2013-04-28 05:21:00,69.0,26.0,-100.00,North,352,2.0,8.0,20,0.00,,,0.00,0.000000,,2013-04-28 12:21:00,
2013-04-28 05:52:00,67.0,30.0,-100.00,NW,314,0.0,4.0,25,0.00,,,0.00,0.000000,,2013-04-28 12:52:00,
2013-04-28 06:02:00,67.0,30.0,-100.00,NW,314,0.0,4.0,25,0.00,,,0.00,0.000000,,2013-04-28 13:02:00,
2013-04-28 06:11:00,67.0,30.0,-100.00,NW,314,0.0,4.0,25,0.00,,,0.00,0.000000,,2013-04-28 13:11:00,
2013-04-28 06:21:00,67.0,30.0,-100.00,NW,314,0.0,4.0,25,0.00,,,0.00,0.000000,,2013-04-28 13:21:00,
2013-04-28 06:52:00,68.0,28.0,-100.00,NNE,20,3.0,7.0,22,0.00,,,0.00,12.000000,,2013-04-28 13:52:00,
2013-04-28 07:01:00,68.0,28.0,-100.00,NNE,20,3.0,7.0,22,0.00,,,0.00,12.000000,,2013-04-28 14:01:00,
2013-04-28 07:52:00,75.0,42.0,-100.00,NNE,16,0.0,6.0,31,0.00,,,0.00,160.000000,,2013-04-28 14:52:00,
2013-04-28 08:12:00,75.0,42.0,-100.00,NNE,16,0.0,6.0,31,0.00,,,0.00,160.000000,,2013-04-28 15:12:00,
2013-04-28 08:21:00,75.0,42.0,-100.00,NNE,16,0.0,6.0,31,0.00,,,0.00,160.000000,,2013-04-28 15:21:00,
2013-04-28 09:13:00,84.0,37.0,-100.00,NE,46,3.0,7.0,19,0.00,,,0.00,425.000000,,2013-04-28 16:13:00,
2013-04-28 09:23:00,84.0,37.0,-100.00,NE,46,3.0,7.0,19,0.00,,,0.00,425.000000,,2013-04-28 16:23:00,
2013-04-28 09:52:00,90.0,24.0,-100.00,NNW,343,12.0,16.0,9,0.00,,,0.00,727.000000,,2013-04-28 16:52:00,
2013-04-28 10:52:00,95.0,27.0,-100.00,North,2,10.0,16.0,9,0.00,,,0.00,957.000000,,2013-04-28 17:52:00,
2013-04-28 11:02:00,95.0,27.0,-100.00,North,2,10.0,16.0,9,0.00,,,0.00,957.000000,,2013-04-28 18:02:00,
2013-04-28 11:12:00,95.0,27.0,-100.00,North,2,10.0,16.0,9,0.00,,,0.00,957.000000,,2013-04-28 18:12:00,
2013-04-28 11:22:00,95.0,27.0,-100.00,North,2,10.0,16.0,9,0.00,,,0.00,957.000000,,2013-04-28 18:22:00,
2013-04-28 11:52:00,96.0,25.0,-100.00,NNW,327,9.0,14.0,8,0.00,,,0.00,1130.000000,,2013-04-28 18:52:00,
2013-04-28 12:02:00,96.0,25.0,-100.00,NNW,327,9.0,14.0,8,0.00,,,0.00,1130.000000,,2013-04-28 19:02:00,
2013-04-28 12:11:00,96.0,25.0,-100.00,NNW,327,9.0,14.0,8,0.00,,,0.00,1130.000000,,2013-04-28 19:11:00,
2013-04-28 12:21:00,96.0,25.0,-100.00,NNW,327,9.0,14.0,8,0.00,,,0.00,1130.000000,,2013-04-28 19:21:00,
2013-04-28 12:52:00,103.0,27.0,-100.00,NNW,345,4.0,13.0,7,0.00,,,0.00,1229.000000,,2013-04-28 19:52:00,
2013-04-28 13:01:00,103.0,27.0,-100.00,NNW,345,4.0,13.0,7,0.00,,,0.00,1229.000000,,2013-04-28 20:01:00,
2013-04-28 13:11:00,103.0,27.0,-100.00,NNW,345,4.0,13.0,7,0.00,,,0.00,1229.000000,,2013-04-28 20:11:00,
2013-04-28 13:21:00,103.0,27.0,-100.00,NNW,345,4.0,13.0,7,0.00,,,0.00,1229.000000,,2013-04-28 20:21:00,
2013-04-28 13:52:00,105.0,20.0,-100.00,North,11,5.0,15.0,5,0.00,,,0.00,1244.000000,,2013-04-28 20:52:00,
2013-04-28 14:01:00,105.0,20.0,-100.00,North,11,5.0,15.0,5,0.00,,,0.00,1244.000000,,2013-04-28 21:01:00,
2013-04-28 14:11:00,105.0,20.0,-100.00,North,11,5.0,15.0,5,0.00,,,0.00,1244.000000,,2013-04-28 21:11:00,
2013-04-28 14:21:00,105.0,20.0,-100.00,North,11,5.0,15.0,5,0.00,,,0.00,1244.000000,,2013-04-28 21:21:00,
2013-04-28 14:53:00,103.0,19.0,-100.00,NW,326,8.0,15.0,5,0.00,,,-99.99,1182.000000,,2013-04-28 21:53:00,
2013-04-28 15:02:00,103.0,19.0,-100.00,NW,326,8.0,15.0,5,0.00,,,-99.99,1182.000000,,2013-04-28 22:02:00,
2013-04-28 15:12:00,103.0,19.0,-100.00,NW,326,8.0,15.0,5,0.00,,,-99.99,1182.000000,,2013-04-28 22:12:00,
2013-04-28 15:22:00,103.0,19.0,-100.00,NW,326,8.0,15.0,5,0.00,,,-99.99,1182.000000,,2013-04-28 22:22:00,
2013-04-28 15:52:00,103.0,19.0,-100.00,NE,37,7.0,19.0,5,0.00,,,0.00,1040.000000,,2013-04-28 22:52:00,
2013-04-28 16:02:00,103.0,19.0,-100.00,NE,37,7.0,19.0,5,0.00,,,0.00,1040.000000,,2013-04-28 23:02:00,
2013-04-28 16:12:00,103.0,19.0,-100.00,NE,37,7.0,19.0,5,0.00,,,0.00,1040.000000,,2013-04-28 23:12:00,
2013-04-28 16:21:00,103.0,19.0,-100.00,NE,37,7.0,19.0,5,0.00,,,0.00,1040.000000,,2013-04-28 23:21:00,
2013-04-28 16:52:00,106.0,21.0,-100.00,West,263,7.0,19.0,5,0.00,,,-99.99,831.000000,,2013-04-28 23:52:00,
2013-04-28 17:01:00,106.0,21.0,-100.00,West,263,7.0,19.0,5,0.00,,,-99.99,831.000000,,2013-04-29 00:01:00,
2013-04-28 17:11:00,106.0,21.0,-100.00,West,263,7.0,19.0,5,0.00,,,-99.99,831.000000,,2013-04-29 00:11:00,
2013-04-28 17:22:00,106.0,21.0,-100.00,West,263,7.0,19.0,5,0.00,,,-99.99,831.000000,,2013-04-29 00:22:00,
2013-04-28 17:52:00,103.0,23.0,-100.00,SW,228,12.0,20.0,6,0.00,,,0.00,401.000000,,2013-04-29 00:52:00,
2013-04-28 18:01:00,103.0,23.0,-100.00,SW,228,12.0,20.0,6,0.00,,,0.00,401.000000,,2013-04-29 01:01:00,
2013-04-28 18:12:00,103.0,23.0,-100.00,SW,228,12.0,20.0,6,0.00,,,0.00,401.000000,,2013-04-29 01:12:00,
2013-04-28 18:21:00,103.0,23.0,-100.00,SW,228,12.0,20.0,6,0.00,,,0.00,401.000000,,2013-04-29 01:21:00,
2013-04-28 18:52:00,98.0,23.0,-100.00,SW,233,12.0,18.0,7,0.00,,,0.00,67.000000,,2013-04-29 01:52:00,
2013-04-28 19:01:00,98.0,23.0,-100.00,SW,233,12.0,18.0,7,0.00,,,0.00,67.000000,,2013-04-29 02:01:00,
2013-04-28 19:11:00,98.0,23.0,-100.00,SW,233,12.0,18.0,7,0.00,,,0.00,67.000000,,2013-04-29 02:11:00,
2013-04-28 19:21:00,98.0,23.0,-100.00,SW,233,12.0,18.0,7,0.00,,,0.00,67.000000,,2013-04-29 02:21:00,
2013-04-28 19:52:00,96.0,25.0,-100.00,SW,236,8.0,18.0,8,0.00,,,0.00,29.000000,,2013-04-29 02:52:00,
2013-04-28 20:01:00,96.0,25.0,-100.00,SW,236,8.0,18.0,8,0.00,,,0.00,29.000000,,2013-04-29 03:01:00,
2013-04-28 20:12:00,96.0,25.0,-100.00,SW,236,8.0,18.0,8,0.00,,,0.00,29.000000,,2013-04-29 03:12:00,
2013-04-28 20:21:00,96.0,25.0,-100.00,SW,236,8.0,18.0,8,0.00,,,0.00,29.000000,,2013-04-29 03:21:00,
2013-04-28 21:52:00,89.0,23.0,-100.00,West,267,1.0,10.0,9,0.00,,,0.00,0.000000,,2013-04-29 04:52:00,
2013-04-28 22:52:00,88.0,27.0,-100.00,West,273,8.0,11.0,11,0.00,,,0.00,0.000000,,2013-04-29 05:52:00,
2013-04-28 23:02:00,88.0,27.0,-100.00,West,273,8.0,11.0,11,0.00,,,0.00,0.000000,,2013-04-29 06:02:00,
2013-04-28 23:11:00,88.0,27.0,-100.00,West,273,8.0,11.0,11,0.00,,,0.00,0.000000,,2013-04-29 06:11:00,
2013-04-28 23:21:00,88.0,27.0,-100.00,West,273,8.0,11.0,11,0.00,,,0.00,0.000000,,2013-04-29 06:21:00,
2013-04-28 23:52:00,88.0,31.0,-100.00,WNW,286,9.0,17.0,13,0.00,,,0.00,0.000000,,2013-04-29 06:52:00,